sensor_id;sensor_type;location;lat;lon;timestamp;temperature;humidity
70170;DHT22;57543;45.442;9.212;2022-12-18T00:00:32;7.37;89.99
70170;DHT22;57543;45.442;9.212;2022-12-18T00:03:36;7.37;89.96
70170;DHT22;57543;45.442;9.212;2022-12-18T00:06:39;7.32;90.09
70170;DHT22;57543;45.442;9.212;2022-12-18T00:09:43;7.30;90.13
70170;DHT22;57543;45.442;9.212;2022-12-18T00:12:46;7.28;90.15
70170;DHT22;57543;45.442;9.212;2022-12-18T00:15:50;7.20;90.21
70170;DHT22;57543;45.442;9.212;2022-12-18T00:18:55;7.23;90.22
70170;DHT22;57543;45.442;9.212;2022-12-18T00:22:01;7.17;90.29
70170;DHT22;57543;45.442;9.212;2022-12-18T00:25:04;7.18;90.27
70170;DHT22;57543;45.442;9.212;2022-12-18T00:28:08;7.18;90.21
70170;DHT22;57543;45.442;9.212;2022-12-18T00:31:15;7.17;90.35
70170;DHT22;57543;45.442;9.212;2022-12-18T00:34:19;7.17;90.40
70170;DHT22;57543;45.442;9.212;2022-12-18T00:37:22;7.20;90.09
70170;DHT22;57543;45.442;9.212;2022-12-18T00:40:28;7.21;89.68
70170;DHT22;57543;45.442;9.212;2022-12-18T00:43:31;7.17;89.87
70170;DHT22;57543;45.442;9.212;2022-12-18T00:46:38;7.17;89.76
70170;DHT22;57543;45.442;9.212;2022-12-18T00:49:41;7.04;90.01
70170;DHT22;57543;45.442;9.212;2022-12-18T00:52:45;7.14;89.88
70170;DHT22;57543;45.442;9.212;2022-12-18T00:55:49;7.04;89.95
70170;DHT22;57543;45.442;9.212;2022-12-18T00:58:52;7.04;90.07
70170;DHT22;57543;45.442;9.212;2022-12-18T01:01:56;7.00;90.24
70170;DHT22;57543;45.442;9.212;2022-12-18T01:05:00;6.97;90.39
70170;DHT22;57543;45.442;9.212;2022-12-18T01:08:04;6.96;90.57
70170;DHT22;57543;45.442;9.212;2022-12-18T01:11:09;7.00;90.43
70170;DHT22;57543;45.442;9.212;2022-12-18T01:14:13;6.96;90.56
70170;DHT22;57543;45.442;9.212;2022-12-18T01:17:17;6.96;90.61
70170;DHT22;57543;45.442;9.212;2022-12-18T01:20:20;6.95;90.63
70170;DHT22;57543;45.442;9.212;2022-12-18T01:23:24;6.92;90.43
70170;DHT22;57543;45.442;9.212;2022-12-18T01:26:28;6.90;90.48
70170;DHT22;57543;45.442;9.212;2022-12-18T01:29:34;6.92;90.20
70170;DHT22;57543;45.442;9.212;2022-12-18T01:32:37;6.88;89.99
70170;DHT22;57543;45.442;9.212;2022-12-18T01:35:42;6.88;89.81
70170;DHT22;57543;45.442;9.212;2022-12-18T01:38:46;6.83;89.59
70170;DHT22;57543;45.442;9.212;2022-12-18T01:41:51;6.82;88.98
70170;DHT22;57543;45.442;9.212;2022-12-18T01:45:28;6.85;88.60
70170;DHT22;57543;45.442;9.212;2022-12-18T01:48:31;6.78;88.20
70170;DHT22;57543;45.442;9.212;2022-12-18T01:51:35;6.73;88.25
70170;DHT22;57543;45.442;9.212;2022-12-18T01:54:39;6.71;88.06
70170;DHT22;57543;45.442;9.212;2022-12-18T01:57:43;6.65;87.96
70170;DHT22;57543;45.442;9.212;2022-12-18T02:00:46;6.64;87.30
70170;DHT22;57543;45.442;9.212;2022-12-18T02:03:50;6.67;86.89
70170;DHT22;57543;45.442;9.212;2022-12-18T02:10:15;6.56;87.25
70170;DHT22;57543;45.442;9.212;2022-12-18T02:16:45;6.56;86.74
70170;DHT22;57543;45.442;9.212;2022-12-18T02:27:05;6.52;87.42
70170;DHT22;57543;45.442;9.212;2022-12-18T02:30:10;6.49;87.51
70170;DHT22;57543;45.442;9.212;2022-12-18T02:33:15;6.49;87.51
70170;DHT22;57543;45.442;9.212;2022-12-18T02:36:21;6.49;87.61
70170;DHT22;57543;45.442;9.212;2022-12-18T02:39:27;6.46;87.50
70170;DHT22;57543;45.442;9.212;2022-12-18T02:42:37;6.45;87.55
70170;DHT22;57543;45.442;9.212;2022-12-18T02:45:55;6.44;87.57
70170;DHT22;57543;45.442;9.212;2022-12-18T02:49:17;6.45;87.63
70170;DHT22;57543;45.442;9.212;2022-12-18T02:59:00;6.42;87.82
70170;DHT22;57543;45.442;9.212;2022-12-18T03:02:22;6.41;87.84
70170;DHT22;57543;45.442;9.212;2022-12-18T03:05:33;6.41;87.81
70170;DHT22;57543;45.442;9.212;2022-12-18T03:08:45;6.46;87.61
70170;DHT22;57543;45.442;9.212;2022-12-18T03:12:05;6.41;87.57
70170;DHT22;57543;45.442;9.212;2022-12-18T03:15:34;6.41;87.73
70170;DHT22;57543;45.442;9.212;2022-12-18T03:18:48;6.40;87.70
70170;DHT22;57543;45.442;9.212;2022-12-18T03:21:55;6.37;87.74
70170;DHT22;57543;45.442;9.212;2022-12-18T03:25:06;6.33;87.87
70170;DHT22;57543;45.442;9.212;2022-12-18T03:28:20;6.35;87.31
70170;DHT22;57543;45.442;9.212;2022-12-18T03:31:27;6.37;87.72
70170;DHT22;57543;45.442;9.212;2022-12-18T03:34:34;6.31;87.99
70170;DHT22;57543;45.442;9.212;2022-12-18T03:37:42;6.31;88.13
70170;DHT22;57543;45.442;9.212;2022-12-18T03:41:15;6.33;88.13
70170;DHT22;57543;45.442;9.212;2022-12-18T03:44:57;6.37;88.03
70170;DHT22;57543;45.442;9.212;2022-12-18T03:48:18;6.37;87.53
70170;DHT22;57543;45.442;9.212;2022-12-18T03:51:28;6.28;88.19
70170;DHT22;57543;45.442;9.212;2022-12-18T03:54:35;6.33;88.09
70170;DHT22;57543;45.442;9.212;2022-12-18T03:57:48;6.30;88.39
70170;DHT22;57543;45.442;9.212;2022-12-18T04:00:55;6.30;88.56
70170;DHT22;57543;45.442;9.212;2022-12-18T04:04:00;6.30;88.55
70170;DHT22;57543;45.442;9.212;2022-12-18T04:07:07;6.31;88.60
70170;DHT22;57543;45.442;9.212;2022-12-18T04:10:16;6.30;88.61
70170;DHT22;57543;45.442;9.212;2022-12-18T04:13:32;6.30;88.53
70170;DHT22;57543;45.442;9.212;2022-12-18T04:16:39;6.35;88.37
70170;DHT22;57543;45.442;9.212;2022-12-18T04:19:46;6.31;88.10
70170;DHT22;57543;45.442;9.212;2022-12-18T04:22:51;6.28;88.34
70170;DHT22;57543;45.442;9.212;2022-12-18T04:25:57;6.27;88.46
70170;DHT22;57543;45.442;9.212;2022-12-18T04:29:15;6.21;88.42
70170;DHT22;57543;45.442;9.212;2022-12-18T04:32:19;6.21;88.29
70170;DHT22;57543;45.442;9.212;2022-12-18T04:35:25;6.24;88.39
70170;DHT22;57543;45.442;9.212;2022-12-18T04:38:29;6.27;88.20
70170;DHT22;57543;45.442;9.212;2022-12-18T04:41:40;6.26;88.25
70170;DHT22;57543;45.442;9.212;2022-12-18T04:44:45;6.27;88.13
70170;DHT22;57543;45.442;9.212;2022-12-18T04:47:49;6.26;88.21
70170;DHT22;57543;45.442;9.212;2022-12-18T04:50:52;6.24;88.14
70170;DHT22;57543;45.442;9.212;2022-12-18T04:53:56;6.26;88.06
70170;DHT22;57543;45.442;9.212;2022-12-18T04:57:00;6.26;88.16
70170;DHT22;57543;45.442;9.212;2022-12-18T05:00:04;6.18;88.22
70170;DHT22;57543;45.442;9.212;2022-12-18T05:03:09;6.23;88.29
70170;DHT22;57543;45.442;9.212;2022-12-18T05:06:12;6.18;88.38
70170;DHT22;57543;45.442;9.212;2022-12-18T05:09:16;6.27;88.30
70170;DHT22;57543;45.442;9.212;2022-12-18T05:12:19;6.28;88.18
70170;DHT22;57543;45.442;9.212;2022-12-18T05:15:27;6.24;88.22
70170;DHT22;57543;45.442;9.212;2022-12-18T05:18:31;6.21;88.09
70170;DHT22;57543;45.442;9.212;2022-12-18T05:21:35;6.24;88.06
70170;DHT22;57543;45.442;9.212;2022-12-18T05:24:38;6.26;88.00
70170;DHT22;57543;45.442;9.212;2022-12-18T05:27:42;6.20;87.77
70170;DHT22;57543;45.442;9.212;2022-12-18T05:30:54;6.23;87.84
70170;DHT22;57543;45.442;9.212;2022-12-18T05:33:58;6.13;87.99
70170;DHT22;57543;45.442;9.212;2022-12-18T05:37:01;6.13;88.05
70170;DHT22;57543;45.442;9.212;2022-12-18T05:40:05;6.09;88.15
70170;DHT22;57543;45.442;9.212;2022-12-18T05:43:10;6.13;88.30
70170;DHT22;57543;45.442;9.212;2022-12-18T05:46:16;6.17;88.12
70170;DHT22;57543;45.442;9.212;2022-12-18T05:49:20;6.17;88.21
70170;DHT22;57543;45.442;9.212;2022-12-18T05:52:24;6.14;88.24
70170;DHT22;57543;45.442;9.212;2022-12-18T05:55:27;6.13;88.27
70170;DHT22;57543;45.442;9.212;2022-12-18T05:58:32;6.20;88.17
70170;DHT22;57543;45.442;9.212;2022-12-18T06:01:36;6.17;88.19
70170;DHT22;57543;45.442;9.212;2022-12-18T06:04:40;6.20;88.21
70170;DHT22;57543;45.442;9.212;2022-12-18T06:07:44;6.23;88.20
70170;DHT22;57543;45.442;9.212;2022-12-18T06:10:50;6.24;88.11
70170;DHT22;57543;45.442;9.212;2022-12-18T06:13:56;6.18;88.32
70170;DHT22;57543;45.442;9.212;2022-12-18T06:16:59;6.21;88.33
70170;DHT22;57543;45.442;9.212;2022-12-18T06:20:04;6.21;88.38
70170;DHT22;57543;45.442;9.212;2022-12-18T06:23:07;6.20;88.31
70170;DHT22;57543;45.442;9.212;2022-12-18T06:26:13;6.18;88.39
70170;DHT22;57543;45.442;9.212;2022-12-18T06:29:16;6.21;88.44
70170;DHT22;57543;45.442;9.212;2022-12-18T06:32:20;6.23;88.36
70170;DHT22;57543;45.442;9.212;2022-12-18T06:35:24;6.24;88.37
70170;DHT22;57543;45.442;9.212;2022-12-18T06:38:28;6.20;88.37
70170;DHT22;57543;45.442;9.212;2022-12-18T06:41:31;6.21;88.55
70170;DHT22;57543;45.442;9.212;2022-12-18T06:44:35;6.18;88.62
70170;DHT22;57543;45.442;9.212;2022-12-18T06:47:39;6.23;88.52
70170;DHT22;57543;45.442;9.212;2022-12-18T06:50:42;6.21;88.39
70170;DHT22;57543;45.442;9.212;2022-12-18T06:53:46;6.18;88.27
70170;DHT22;57543;45.442;9.212;2022-12-18T06:56:49;6.16;88.18
70170;DHT22;57543;45.442;9.212;2022-12-18T06:59:52;6.11;88.31
70170;DHT22;57543;45.442;9.212;2022-12-18T07:02:56;6.13;88.27
70170;DHT22;57543;45.442;9.212;2022-12-18T07:06:00;6.11;88.23
70170;DHT22;57543;45.442;9.212;2022-12-18T07:09:03;6.14;88.16
70170;DHT22;57543;45.442;9.212;2022-12-18T07:12:07;6.07;88.34
70170;DHT22;57543;45.442;9.212;2022-12-18T07:15:11;6.09;88.34
70170;DHT22;57543;45.442;9.212;2022-12-18T07:18:15;6.13;87.91
70170;DHT22;57543;45.442;9.212;2022-12-18T07:21:19;6.13;87.70
70170;DHT22;57543;45.442;9.212;2022-12-18T07:24:22;6.07;88.07
70170;DHT22;57543;45.442;9.212;2022-12-18T07:27:26;6.07;88.21
70170;DHT22;57543;45.442;9.212;2022-12-18T07:30:30;6.09;88.15
70170;DHT22;57543;45.442;9.212;2022-12-18T07:33:34;6.14;87.95
70170;DHT22;57543;45.442;9.212;2022-12-18T07:36:38;6.31;87.31
70170;DHT22;57543;45.442;9.212;2022-12-18T07:39:42;6.18;87.60
70170;DHT22;57543;45.442;9.212;2022-12-18T07:42:46;6.11;88.10
70170;DHT22;57543;45.442;9.212;2022-12-18T07:45:49;6.13;88.12
70170;DHT22;57543;45.442;9.212;2022-12-18T07:48:54;6.13;88.14
70170;DHT22;57543;45.442;9.212;2022-12-18T07:51:58;6.11;88.09
70170;DHT22;57543;45.442;9.212;2022-12-18T07:55:02;6.13;87.82
70170;DHT22;57543;45.442;9.212;2022-12-18T07:58:06;6.11;87.73
70170;DHT22;57543;45.442;9.212;2022-12-18T08:01:11;6.10;87.62
70170;DHT22;57543;45.442;9.212;2022-12-18T08:04:15;6.14;87.83
70170;DHT22;57543;45.442;9.212;2022-12-18T08:07:19;6.16;87.78
70170;DHT22;57543;45.442;9.212;2022-12-18T08:10:23;6.16;87.66
70170;DHT22;57543;45.442;9.212;2022-12-18T08:13:27;6.14;87.74
70170;DHT22;57543;45.442;9.212;2022-12-18T08:16:30;6.17;87.81
70170;DHT22;57543;45.442;9.212;2022-12-18T08:19:34;6.18;87.84
70170;DHT22;57543;45.442;9.212;2022-12-18T08:22:38;6.21;87.89
70170;DHT22;57543;45.442;9.212;2022-12-18T08:25:41;6.20;87.94
70170;DHT22;57543;45.442;9.212;2022-12-18T08:28:45;6.14;87.79
70170;DHT22;57543;45.442;9.212;2022-12-18T08:31:49;6.20;87.97
70170;DHT22;57543;45.442;9.212;2022-12-18T08:34:53;6.17;87.91
70170;DHT22;57543;45.442;9.212;2022-12-18T08:37:58;6.21;88.05
70170;DHT22;57543;45.442;9.212;2022-12-18T08:41:03;6.27;88.15
70170;DHT22;57543;45.442;9.212;2022-12-18T08:44:07;6.34;88.14
70170;DHT22;57543;45.442;9.212;2022-12-18T08:47:30;6.34;88.19
70170;DHT22;57543;45.442;9.212;2022-12-18T08:50:34;6.37;88.25
70170;DHT22;57543;45.442;9.212;2022-12-18T08:53:38;6.41;88.13
70170;DHT22;57543;45.442;9.212;2022-12-18T08:56:41;6.48;87.92
70170;DHT22;57543;45.442;9.212;2022-12-18T08:59:45;6.46;87.86
70170;DHT22;57543;45.442;9.212;2022-12-18T09:02:48;6.52;87.89
70170;DHT22;57543;45.442;9.212;2022-12-18T09:05:52;6.55;87.38
70170;DHT22;57543;45.442;9.212;2022-12-18T09:08:56;6.54;87.35
70170;DHT22;57543;45.442;9.212;2022-12-18T09:12:00;6.49;87.25
70170;DHT22;57543;45.442;9.212;2022-12-18T09:15:04;6.54;87.26
70170;DHT22;57543;45.442;9.212;2022-12-18T09:18:08;6.52;87.61
70170;DHT22;57543;45.442;9.212;2022-12-18T09:21:15;6.55;87.52
70170;DHT22;57543;45.442;9.212;2022-12-18T09:24:18;6.56;87.54
70170;DHT22;57543;45.442;9.212;2022-12-18T09:27:22;6.59;87.65
70170;DHT22;57543;45.442;9.212;2022-12-18T09:30:26;6.64;87.51
70170;DHT22;57543;45.442;9.212;2022-12-18T09:33:30;6.65;87.41
70170;DHT22;57543;45.442;9.212;2022-12-18T09:36:34;6.68;87.31
70170;DHT22;57543;45.442;9.212;2022-12-18T09:39:38;6.69;87.23
70170;DHT22;57543;45.442;9.212;2022-12-18T09:42:45;6.65;87.08
70170;DHT22;57543;45.442;9.212;2022-12-18T09:45:55;6.67;87.10
70170;DHT22;57543;45.442;9.212;2022-12-18T09:49:02;6.69;86.62
70170;DHT22;57543;45.442;9.212;2022-12-18T09:52:19;6.71;86.86
70170;DHT22;57543;45.442;9.212;2022-12-18T09:58:35;5.65;83.36
70170;DHT22;57543;45.442;9.212;2022-12-18T10:01:41;4.26;81.10
70170;DHT22;57543;45.442;9.212;2022-12-18T10:04:54;2.99;78.84
70170;DHT22;57543;45.442;9.212;2022-12-18T10:15:13;2.61;91.76
70170;DHT22;57543;45.442;9.212;2022-12-18T10:18:48;3.75;95.48
70170;DHT22;57543;45.442;9.212;2022-12-18T10:22:11;3.60;88.86
70170;DHT22;57543;45.442;9.212;2022-12-18T10:25:26;3.13;86.56
70170;DHT22;57543;45.442;9.212;2022-12-18T10:28:36;2.99;87.17
70170;DHT22;57543;45.442;9.212;2022-12-18T10:31:40;3.05;88.18
70170;DHT22;57543;45.442;9.212;2022-12-18T10:34:48;3.31;90.11
70170;DHT22;57543;45.442;9.212;2022-12-18T10:38:37;3.34;88.42
70170;DHT22;57543;45.442;9.212;2022-12-18T10:41:41;3.31;88.65
70170;DHT22;57543;45.442;9.212;2022-12-18T10:44:45;3.37;88.14
70170;DHT22;57543;45.442;9.212;2022-12-18T10:47:49;3.43;88.53
70170;DHT22;57543;45.442;9.212;2022-12-18T10:50:53;3.48;88.50
70170;DHT22;57543;45.442;9.212;2022-12-18T10:54:04;3.54;88.29
70170;DHT22;57543;45.442;9.212;2022-12-18T10:57:30;3.54;88.24
70170;DHT22;57543;45.442;9.212;2022-12-18T11:00:34;3.60;88.80
70170;DHT22;57543;45.442;9.212;2022-12-18T11:07:03;3.63;87.93
70170;DHT22;57543;45.442;9.212;2022-12-18T11:10:19;3.75;88.15
70170;DHT22;57543;45.442;9.212;2022-12-18T11:13:25;3.92;88.45
70170;DHT22;57543;45.442;9.212;2022-12-18T11:16:32;4.12;91.23
70170;DHT22;57543;45.442;9.212;2022-12-18T11:19:39;4.06;86.81
70170;DHT22;57543;45.442;9.212;2022-12-18T11:22:54;4.13;86.36
70170;DHT22;57543;45.442;9.212;2022-12-18T11:26:01;4.47;87.38
70170;DHT22;57543;45.442;9.212;2022-12-18T11:29:14;4.43;87.60
70170;DHT22;57543;45.442;9.212;2022-12-18T11:32:31;4.40;86.49
70170;DHT22;57543;45.442;9.212;2022-12-18T11:35:53;4.32;86.15
70170;DHT22;57543;45.442;9.212;2022-12-18T11:39:02;4.36;87.86
70170;DHT22;57543;45.442;9.212;2022-12-18T11:42:14;4.43;86.50
70170;DHT22;57543;45.442;9.212;2022-12-18T11:45:27;4.43;85.91
70170;DHT22;57543;45.442;9.212;2022-12-18T11:48:43;4.57;85.57
70170;DHT22;57543;45.442;9.212;2022-12-18T11:52:01;5.13;82.30
70170;DHT22;57543;45.442;9.212;2022-12-18T11:55:28;5.58;82.55
70170;DHT22;57543;45.442;9.212;2022-12-18T12:22:09;8.61;80.77
70170;DHT22;57543;45.442;9.212;2022-12-18T12:25:21;9.01;80.39
70170;DHT22;57543;45.442;9.212;2022-12-18T12:28:47;9.30;80.27
70170;DHT22;57543;45.442;9.212;2022-12-18T12:38:34;9.14;77.81
70170;DHT22;57543;45.442;9.212;2022-12-18T12:41:39;9.14;78.46
70170;DHT22;57543;45.442;9.212;2022-12-18T12:45:05;9.28;78.65
70170;DHT22;57543;45.442;9.212;2022-12-18T12:48:31;9.41;78.11
70170;DHT22;57543;45.442;9.212;2022-12-18T12:51:42;9.55;77.88
70170;DHT22;57543;45.442;9.212;2022-12-18T12:54:47;9.59;77.59
70170;DHT22;57543;45.442;9.212;2022-12-18T13:01:10;9.76;76.87
70170;DHT22;57543;45.442;9.212;2022-12-18T13:04:30;9.86;77.39
70170;DHT22;57543;45.442;9.212;2022-12-18T13:07:47;9.68;75.26
70170;DHT22;57543;45.442;9.212;2022-12-18T13:10:54;9.69;75.36
70170;DHT22;57543;45.442;9.212;2022-12-18T13:14:44;9.65;75.87
70170;DHT22;57543;45.442;9.212;2022-12-18T13:17:47;9.59;75.60
70170;DHT22;57543;45.442;9.212;2022-12-18T13:24:15;9.34;77.36
70170;DHT22;57543;45.442;9.212;2022-12-18T13:28:03;9.30;77.58
70170;DHT22;57543;45.442;9.212;2022-12-18T13:31:07;9.27;77.17
70170;DHT22;57543;45.442;9.212;2022-12-18T13:34:19;9.24;77.42
70170;DHT22;57543;45.442;9.212;2022-12-18T13:43:47;8.97;78.34
70170;DHT22;57543;45.442;9.212;2022-12-18T13:46:52;8.93;78.65
70170;DHT22;57543;45.442;9.212;2022-12-18T13:49:56;9.01;78.31
70170;DHT22;57543;45.442;9.212;2022-12-18T13:53:00;9.06;78.80
70170;DHT22;57543;45.442;9.212;2022-12-18T13:56:06;9.24;78.65
70170;DHT22;57543;45.442;9.212;2022-12-18T13:59:21;9.28;78.06
70170;DHT22;57543;45.442;9.212;2022-12-18T14:02:27;9.30;77.98
70170;DHT22;57543;45.442;9.212;2022-12-18T14:05:32;9.42;76.85
70170;DHT22;57543;45.442;9.212;2022-12-18T14:08:41;9.49;76.99
70170;DHT22;57543;45.442;9.212;2022-12-18T14:11:49;9.45;76.17
70170;DHT22;57543;45.442;9.212;2022-12-18T14:14:53;9.42;76.43
70170;DHT22;57543;45.442;9.212;2022-12-18T14:18:03;9.31;76.28
70170;DHT22;57543;45.442;9.212;2022-12-18T14:21:29;9.24;77.88
70170;DHT22;57543;45.442;9.212;2022-12-18T14:24:33;9.04;78.05
70170;DHT22;57543;45.442;9.212;2022-12-18T14:27:38;8.83;78.14
70170;DHT22;57543;45.442;9.212;2022-12-18T14:30:45;8.70;78.21
70170;DHT22;57543;45.442;9.212;2022-12-18T14:33:50;8.56;78.51
70170;DHT22;57543;45.442;9.212;2022-12-18T14:36:54;8.38;78.71
70170;DHT22;57543;45.442;9.212;2022-12-18T14:40:01;8.37;79.14
70170;DHT22;57543;45.442;9.212;2022-12-18T14:43:10;8.30;79.24
70170;DHT22;57543;45.442;9.212;2022-12-18T14:49:35;7.99;80.33
70170;DHT22;57543;45.442;9.212;2022-12-18T14:52:40;7.99;80.21
70170;DHT22;57543;45.442;9.212;2022-12-18T14:55:47;7.89;80.74
70170;DHT22;57543;45.442;9.212;2022-12-18T14:58:58;7.86;80.54
70170;DHT22;57543;45.442;9.212;2022-12-18T15:02:23;7.75;80.91
70170;DHT22;57543;45.442;9.212;2022-12-18T15:05:30;7.68;81.07
70170;DHT22;57543;45.442;9.212;2022-12-18T15:08:37;7.61;81.56
70170;DHT22;57543;45.442;9.212;2022-12-18T15:14:43;7.54;82.03
70170;DHT22;57543;45.442;9.212;2022-12-18T15:17:47;7.54;82.37
70170;DHT22;57543;45.442;9.212;2022-12-18T15:20:59;7.55;82.31
70170;DHT22;57543;45.442;9.212;2022-12-18T15:24:04;7.55;82.56
70170;DHT22;57543;45.442;9.212;2022-12-18T15:27:20;7.56;82.10
70170;DHT22;57543;45.442;9.212;2022-12-18T15:30:25;7.48;82.27
70170;DHT22;57543;45.442;9.212;2022-12-18T15:33:40;7.50;82.25
70170;DHT22;57543;45.442;9.212;2022-12-18T15:36:44;7.44;82.68
70170;DHT22;57543;45.442;9.212;2022-12-18T15:39:48;7.43;82.74
70170;DHT22;57543;45.442;9.212;2022-12-18T15:42:53;7.71;86.86
70170;DHT22;57543;45.442;9.212;2022-12-18T15:46:18;7.73;84.94
70170;DHT22;57543;45.442;9.212;2022-12-18T15:49:22;7.66;81.89
70170;DHT22;57543;45.442;9.212;2022-12-18T15:52:26;7.61;81.73
70170;DHT22;57543;45.442;9.212;2022-12-18T15:55:30;7.59;81.91
70170;DHT22;57543;45.442;9.212;2022-12-18T15:58:53;7.62;81.66
70170;DHT22;57543;45.442;9.212;2022-12-18T16:01:56;7.55;81.72
70170;DHT22;57543;45.442;9.212;2022-12-18T16:05:00;7.56;81.80
70170;DHT22;57543;45.442;9.212;2022-12-18T16:08:04;7.48;82.01
70170;DHT22;57543;45.442;9.212;2022-12-18T16:11:34;7.40;82.01
70170;DHT22;57543;45.442;9.212;2022-12-18T16:14:41;7.41;82.12
70170;DHT22;57543;45.442;9.212;2022-12-18T16:17:46;7.35;82.32
70170;DHT22;57543;45.442;9.212;2022-12-18T16:20:50;7.35;82.21
70170;DHT22;57543;45.442;9.212;2022-12-18T16:23:54;7.31;82.58
70170;DHT22;57543;45.442;9.212;2022-12-18T16:26:59;7.27;82.66
70170;DHT22;57543;45.442;9.212;2022-12-18T16:30:04;7.24;82.56
70170;DHT22;57543;45.442;9.212;2022-12-18T16:33:09;7.14;82.81
70170;DHT22;57543;45.442;9.212;2022-12-18T16:36:13;7.21;82.72
70170;DHT22;57543;45.442;9.212;2022-12-18T16:39:18;7.18;82.92
70170;DHT22;57543;45.442;9.212;2022-12-18T16:42:22;7.14;83.30
70170;DHT22;57543;45.442;9.212;2022-12-18T16:45:25;7.14;83.16
70170;DHT22;57543;45.442;9.212;2022-12-18T16:48:33;7.07;83.32
70170;DHT22;57543;45.442;9.212;2022-12-18T16:51:37;7.04;83.49
70170;DHT22;57543;45.442;9.212;2022-12-18T16:54:41;7.01;83.23
70170;DHT22;57543;45.442;9.212;2022-12-18T16:57:45;7.01;83.08
70170;DHT22;57543;45.442;9.212;2022-12-18T17:00:49;7.01;83.38
70170;DHT22;57543;45.442;9.212;2022-12-18T17:06:56;6.85;83.61
70170;DHT22;57543;45.442;9.212;2022-12-18T17:10:00;6.76;83.78
70170;DHT22;57543;45.442;9.212;2022-12-18T17:13:03;6.76;84.16
70170;DHT22;57543;45.442;9.212;2022-12-18T17:16:08;6.82;84.30
70170;DHT22;57543;45.442;9.212;2022-12-18T17:19:12;6.82;84.14
70170;DHT22;57543;45.442;9.212;2022-12-18T17:22:16;6.79;84.28
70170;DHT22;57543;45.442;9.212;2022-12-18T17:25:20;6.76;84.25
70170;DHT22;57543;45.442;9.212;2022-12-18T17:28:24;6.69;83.79
70170;DHT22;57543;45.442;9.212;2022-12-18T17:31:29;6.65;84.15
70170;DHT22;57543;45.442;9.212;2022-12-18T17:34:33;6.65;84.27
70170;DHT22;57543;45.442;9.212;2022-12-18T17:37:37;6.58;84.41
70170;DHT22;57543;45.442;9.212;2022-12-18T17:40:40;6.55;84.78
70170;DHT22;57543;45.442;9.212;2022-12-18T17:43:53;6.59;84.76
70170;DHT22;57543;45.442;9.212;2022-12-18T17:46:57;6.64;84.55
70170;DHT22;57543;45.442;9.212;2022-12-18T17:50:00;6.59;84.70
70170;DHT22;57543;45.442;9.212;2022-12-18T17:53:04;6.55;84.65
70170;DHT22;57543;45.442;9.212;2022-12-18T17:56:14;6.52;84.70
70170;DHT22;57543;45.442;9.212;2022-12-18T17:59:18;6.54;84.75
70170;DHT22;57543;45.442;9.212;2022-12-18T18:02:22;6.45;84.85
70170;DHT22;57543;45.442;9.212;2022-12-18T18:05:27;6.41;84.91
70170;DHT22;57543;45.442;9.212;2022-12-18T18:08:33;6.37;85.00
70170;DHT22;57543;45.442;9.212;2022-12-18T18:11:36;6.33;84.80
70170;DHT22;57543;45.442;9.212;2022-12-18T18:14:59;6.26;84.96
70170;DHT22;57543;45.442;9.212;2022-12-18T18:18:02;6.17;85.05
70170;DHT22;57543;45.442;9.212;2022-12-18T18:21:07;6.18;85.23
70170;DHT22;57543;45.442;9.212;2022-12-18T18:24:13;6.28;85.31
70170;DHT22;57543;45.442;9.212;2022-12-18T18:27:17;6.31;85.47
70170;DHT22;57543;45.442;9.212;2022-12-18T18:30:21;6.40;85.74
70170;DHT22;57543;45.442;9.212;2022-12-18T18:33:24;6.42;85.79
70170;DHT22;57543;45.442;9.212;2022-12-18T18:36:29;6.46;85.68
70170;DHT22;57543;45.442;9.212;2022-12-18T18:39:32;6.51;85.73
70170;DHT22;57543;45.442;9.212;2022-12-18T18:42:36;6.58;85.78
70170;DHT22;57543;45.442;9.212;2022-12-18T18:45:40;6.65;85.33
70170;DHT22;57543;45.442;9.212;2022-12-18T18:48:44;6.55;85.50
70170;DHT22;57543;45.442;9.212;2022-12-18T18:51:49;6.56;85.60
70170;DHT22;57543;45.442;9.212;2022-12-18T18:54:53;6.59;85.60
70170;DHT22;57543;45.442;9.212;2022-12-18T18:57:56;6.54;85.14
70170;DHT22;57543;45.442;9.212;2022-12-18T19:01:06;6.56;85.17
70170;DHT22;57543;45.442;9.212;2022-12-18T19:04:10;6.55;85.29
70170;DHT22;57543;45.442;9.212;2022-12-18T19:07:14;6.54;85.63
70170;DHT22;57543;45.442;9.212;2022-12-18T19:10:18;6.51;85.37
70170;DHT22;57543;45.442;9.212;2022-12-18T19:13:24;6.46;85.42
70170;DHT22;57543;45.442;9.212;2022-12-18T19:16:28;6.27;85.97
70170;DHT22;57543;45.442;9.212;2022-12-18T19:19:32;6.24;86.03
70170;DHT22;57543;45.442;9.212;2022-12-18T19:22:36;6.18;86.76
70170;DHT22;57543;45.442;9.212;2022-12-18T19:25:40;6.30;86.50
70170;DHT22;57543;45.442;9.212;2022-12-18T19:28:45;6.28;86.69
70170;DHT22;57543;45.442;9.212;2022-12-18T19:31:48;6.37;86.37
70170;DHT22;57543;45.442;9.212;2022-12-18T19:34:52;6.21;86.71
70170;DHT22;57543;45.442;9.212;2022-12-18T19:37:56;6.30;86.84
70170;DHT22;57543;45.442;9.212;2022-12-18T19:41:03;6.28;86.37
70170;DHT22;57543;45.442;9.212;2022-12-18T19:44:09;6.24;86.63
70170;DHT22;57543;45.442;9.212;2022-12-18T19:47:14;6.11;87.16
70170;DHT22;57543;45.442;9.212;2022-12-18T19:50:18;6.23;87.13
70170;DHT22;57543;45.442;9.212;2022-12-18T19:53:21;6.28;86.93
70170;DHT22;57543;45.442;9.212;2022-12-18T19:56:27;6.33;86.76
70170;DHT22;57543;45.442;9.212;2022-12-18T19:59:31;6.33;86.47
70170;DHT22;57543;45.442;9.212;2022-12-18T20:02:35;6.49;85.84
70170;DHT22;57543;45.442;9.212;2022-12-18T20:05:38;6.42;85.99
70170;DHT22;57543;45.442;9.212;2022-12-18T20:08:43;6.42;85.75
70170;DHT22;57543;45.442;9.212;2022-12-18T20:11:47;6.38;85.65
70170;DHT22;57543;45.442;9.212;2022-12-18T20:14:51;6.37;85.74
70170;DHT22;57543;45.442;9.212;2022-12-18T20:17:55;6.38;85.75
70170;DHT22;57543;45.442;9.212;2022-12-18T20:20:58;6.42;85.74
70170;DHT22;57543;45.442;9.212;2022-12-18T20:24:02;6.42;85.78
70170;DHT22;57543;45.442;9.212;2022-12-18T20:27:07;6.49;85.77
70170;DHT22;57543;45.442;9.212;2022-12-18T20:30:11;6.48;85.61
70170;DHT22;57543;45.442;9.212;2022-12-18T20:33:16;6.52;85.18
70170;DHT22;57543;45.442;9.212;2022-12-18T20:36:20;6.46;85.40
70170;DHT22;57543;45.442;9.212;2022-12-18T20:39:23;6.49;85.58
70170;DHT22;57543;45.442;9.212;2022-12-18T20:42:28;6.48;85.76
70170;DHT22;57543;45.442;9.212;2022-12-18T20:45:32;6.46;85.48
70170;DHT22;57543;45.442;9.212;2022-12-18T20:48:36;6.46;85.63
70170;DHT22;57543;45.442;9.212;2022-12-18T20:51:40;6.54;85.64
70170;DHT22;57543;45.442;9.212;2022-12-18T20:54:44;6.51;85.46
70170;DHT22;57543;45.442;9.212;2022-12-18T20:57:48;6.56;85.48
70170;DHT22;57543;45.442;9.212;2022-12-18T21:01:22;6.61;85.19
70170;DHT22;57543;45.442;9.212;2022-12-18T21:04:26;6.65;85.32
70170;DHT22;57543;45.442;9.212;2022-12-18T21:07:31;6.69;85.24
70170;DHT22;57543;45.442;9.212;2022-12-18T21:10:35;6.67;85.30
70170;DHT22;57543;45.442;9.212;2022-12-18T21:13:38;6.68;85.22
70170;DHT22;57543;45.442;9.212;2022-12-18T21:16:42;6.67;84.80
70170;DHT22;57543;45.442;9.212;2022-12-18T21:19:46;6.65;84.84
70170;DHT22;57543;45.442;9.212;2022-12-18T21:22:50;6.58;84.96
70170;DHT22;57543;45.442;9.212;2022-12-18T21:25:53;6.64;85.12